Time;durP1;ratioP1;P1;durP2;ratioP2;P2;SDS_P1;SDS_P2;PMS_P1;PMS_P2;Temp;Humidity;BMP_temperature;BMP_pressure;BME280_temperature;BME280_humidity;BME280_pressure;Samples;Min_cycle;Max_cycle;Signal;HPM_P1;HPM_P2
2023/02/22 00:01:49;;;;;;;7.17;3.57;;;8.60;99.90;;;;;;4162847;28;20235;-75
2023/02/22 00:03:52;;;;;;;8.00;4.37;;;8.60;99.90;;;;;;4162129;28;20371;-75
2023/02/22 00:05:57;;;;;;;9.23;4.27;;;8.50;99.90;;;;;;4161793;28;20215;-75
2023/02/22 00:07:59;;;;;;;10.77;4.77;;;8.50;99.90;;;;;;4158367;28;20571;-75
2023/02/22 00:10:01;;;;;;;9.50;4.53;;;8.50;99.90;;;;;;4162917;28;20217;-75
2023/02/22 00:12:03;;;;;;;8.03;4.50;;;8.50;99.90;;;;;;4162658;28;20224;-75
2023/02/22 00:14:07;;;;;;;10.37;4.50;;;8.40;99.90;;;;;;4161915;28;20694;-75
2023/02/22 00:16:11;;;;;;;8.10;4.53;;;8.40;99.90;;;;;;4177975;28;20209;-75
2023/02/22 00:18:16;;;;;;;8.77;4.13;;;8.30;99.90;;;;;;4161896;28;20585;-75
2023/02/22 00:20:18;;;;;;;7.40;4.07;;;8.30;99.90;;;;;;4160770;28;20234;-75
2023/02/22 00:22:20;;;;;;;9.23;4.87;;;8.30;99.90;;;;;;4162548;28;20199;-75
2023/02/22 00:24:22;;;;;;;7.40;4.30;;;8.30;99.90;;;;;;4162246;28;20339;-75
2023/02/22 00:26:24;;;;;;;7.30;3.67;;;8.30;99.90;;;;;;4162553;28;20866;-75
2023/02/22 00:28:26;;;;;;;8.33;4.17;;;8.20;99.90;;;;;;4154446;28;20725;-75
2023/02/22 00:30:31;;;;;;;8.40;4.57;;;8.20;99.90;;;;;;4159112;28;20409;-75
2023/02/22 00:32:33;;;;;;;7.57;4.17;;;8.20;99.90;;;;;;4161182;28;20586;-75
2023/02/22 00:34:35;;;;;;;7.80;4.30;;;8.10;99.90;;;;;;4160428;28;20219;-75
2023/02/22 00:36:37;;;;;;;8.13;4.30;;;8.10;99.90;;;;;;4161698;28;20211;-75
2023/02/22 00:38:40;;;;;;;8.73;4.33;;;8.10;99.90;;;;;;4161051;28;20295;-75
2023/02/22 00:40:41;;;;;;;10.33;4.37;;;8.10;99.90;;;;;;4162475;28;20211;-75
2023/02/22 00:42:45;;;;;;;9.33;4.10;;;8.10;99.90;;;;;;4162230;28;20231;-75
2023/02/22 00:44:47;;;;;;;7.47;4.03;;;8.00;99.90;;;;;;4162105;28;20223;-75
2023/02/22 00:46:50;;;;;;;7.87;4.00;;;8.00;99.90;;;;;;4160639;28;20202;-75
2023/02/22 00:48:53;;;;;;;7.30;4.30;;;8.00;99.90;;;;;;4160941;28;20266;-75
2023/02/22 00:50:55;;;;;;;7.23;4.13;;;7.90;99.90;;;;;;4162642;28;20575;-76
2023/02/22 00:52:59;;;;;;;7.60;4.27;;;7.90;99.90;;;;;;4161831;28;20218;-75
2023/02/22 00:55:02;;;;;;;8.17;4.30;;;7.90;99.90;;;;;;4161741;28;20257;-75
2023/02/22 00:57:04;;;;;;;9.33;4.63;;;7.90;99.90;;;;;;4161238;28;20294;-75
2023/02/22 00:59:06;;;;;;;8.63;4.70;;;7.90;99.90;;;;;;4160698;28;20238;-75
2023/02/22 01:01:07;;;;;;;10.63;4.57;;;7.90;99.90;;;;;;4161012;28;20632;-75
2023/02/22 01:03:14;;;;;;;9.33;4.47;;;7.90;99.90;;;;;;4160163;28;20261;-75
2023/02/22 01:05:18;;;;;;;11.27;5.17;;;7.80;99.90;;;;;;4160653;28;20870;-76
2023/02/22 01:07:20;;;;;;;11.43;4.50;;;7.90;99.90;;;;;;4160873;28;20274;-75
2023/02/22 01:09:22;;;;;;;10.37;4.90;;;7.90;99.90;;;;;;4161638;28;20203;-75
2023/02/22 01:11:24;;;;;;;8.77;4.60;;;7.90;99.90;;;;;;4161395;28;20230;-75
2023/02/22 01:13:26;;;;;;;11.80;5.13;;;7.90;99.90;;;;;;4160188;28;20517;-75
2023/02/22 01:15:30;;;;;;;10.83;4.70;;;7.90;99.90;;;;;;4159263;28;20486;-76
2023/02/22 01:17:32;;;;;;;9.10;4.33;;;7.90;99.90;;;;;;4163590;28;20869;-76
2023/02/22 01:19:35;;;;;;;9.53;4.73;;;7.90;99.90;;;;;;4161960;28;20207;-75
2023/02/22 01:21:37;;;;;;;9.00;4.50;;;7.90;99.90;;;;;;4159055;28;20262;-75
2023/02/22 01:23:39;;;;;;;9.83;4.97;;;7.90;99.90;;;;;;4159653;28;20259;-75
2023/02/22 01:25:42;;;;;;;12.37;6.30;;;7.90;99.90;;;;;;4160494;28;20215;-75
2023/02/22 01:27:44;;;;;;;15.80;6.90;;;7.90;99.90;;;;;;4161668;28;20834;-75
2023/02/22 01:29:48;;;;;;;16.50;7.20;;;7.90;99.90;;;;;;4160908;28;20525;-76
2023/02/22 01:31:53;;;;;;;15.97;7.10;;;7.90;99.90;;;;;;4158772;28;20269;-75
2023/02/22 01:33:55;;;;;;;16.67;6.80;;;7.90;99.90;;;;;;4161126;28;21073;-75
2023/02/22 01:35:58;;;;;;;14.53;6.60;;;7.80;99.90;;;;;;4160882;28;20219;-76
2023/02/22 01:38:00;;;;;;;12.83;6.07;;;7.90;99.90;;;;;;4160343;28;20468;-75
2023/02/22 01:40:06;;;;;;;13.37;6.60;;;7.90;99.90;;;;;;4161367;28;20553;-75
2023/02/22 01:42:08;;;;;;;12.90;6.30;;;7.80;99.90;;;;;;4161544;28;20461;-75
2023/02/22 01:44:26;;;;;;;11.80;5.73;;;7.90;99.90;;;;;;4160756;28;20273;-75
2023/02/22 01:46:28;;;;;;;12.00;5.50;;;7.90;99.90;;;;;;4159715;28;20469;-75
2023/02/22 01:48:35;;;;;;;11.93;5.90;;;7.80;99.90;;;;;;4157011;28;20481;-75
2023/02/22 01:50:40;;;;;;;12.73;6.23;;;7.80;99.90;;;;;;4160411;28;20213;-75
2023/02/22 01:52:44;;;;;;;12.43;5.67;;;7.80;99.90;;;;;;4161074;28;20509;-75
2023/02/22 01:54:49;;;;;;;12.33;5.97;;;7.80;99.90;;;;;;4160085;28;20592;-75
2023/02/22 01:56:59;;;;;;;12.97;6.43;;;7.70;99.90;;;;;;4161131;28;20542;-75
2023/02/22 01:59:05;;;;;;;12.60;5.73;;;7.80;99.90;;;;;;4161942;28;20881;-75
2023/02/22 02:01:08;;;;;;;13.27;6.57;;;7.70;99.90;;;;;;4160605;28;20214;-75
2023/02/22 02:03:13;;;;;;;11.40;5.87;;;7.60;99.90;;;;;;4160417;28;20464;-75
2023/02/22 02:05:17;;;;;;;13.23;6.53;;;7.60;99.90;;;;;;4161514;28;20209;-75
2023/02/22 02:07:21;;;;;;;12.53;5.80;;;7.60;99.90;;;;;;4156841;28;20472;-75
2023/02/22 02:09:33;;;;;;;12.07;5.80;;;7.50;99.90;;;;;;4161562;28;20472;-75
2023/02/22 02:11:35;;;;;;;11.53;5.60;;;7.50;99.90;;;;;;4159445;28;21175;-75
2023/02/22 02:13:37;;;;;;;12.17;5.67;;;7.40;99.90;;;;;;4160750;28;20999;-75
2023/02/22 02:15:39;;;;;;;11.80;5.63;;;7.50;99.90;;;;;;4161471;28;20545;-75
2023/02/22 02:17:42;;;;;;;10.97;5.93;;;7.40;99.90;;;;;;4161782;28;20509;-75
2023/02/22 02:19:53;;;;;;;11.63;5.83;;;7.30;99.90;;;;;;4161206;28;20513;-75
2023/02/22 02:22:17;;;;;;;13.57;6.67;;;7.30;99.90;;;;;;4160689;28;20989;-75
2023/02/22 02:24:51;;;;;;;12.73;5.87;;;7.30;99.90;;;;;;4161031;28;20515;-75
2023/02/22 02:27:05;;;;;;;13.17;6.70;;;7.20;99.90;;;;;;4160986;28;20487;-75
2023/02/22 02:29:33;;;;;;;12.47;6.40;;;7.20;99.90;;;;;;4161342;28;20489;-75
2023/02/22 02:32:03;;;;;;;11.33;5.97;;;7.10;99.90;;;;;;4159748;28;20474;-75
2023/02/22 02:34:16;;;;;;;13.70;6.17;;;7.10;99.90;;;;;;4153766;28;20504;-75
2023/02/22 02:36:23;;;;;;;12.33;5.97;;;7.10;99.90;;;;;;4160482;28;21240;-75
2023/02/22 02:38:33;;;;;;;11.03;5.73;;;7.00;99.90;;;;;;4159605;28;20466;-75
2023/02/22 02:40:44;;;;;;;16.77;6.17;;;7.00;99.90;;;;;;4161846;28;20560;-75
2023/02/22 02:42:54;;;;;;;13.27;6.30;;;6.90;99.90;;;;;;4160654;28;20559;-76
2023/02/22 02:45:04;;;;;;;11.67;6.30;;;6.90;99.90;;;;;;4159748;28;20472;-75
2023/02/22 02:47:13;;;;;;;12.80;6.10;;;6.90;99.90;;;;;;4161404;28;20466;-76
2023/02/22 02:49:22;;;;;;;12.20;6.10;;;6.90;99.90;;;;;;4160461;28;20498;-75
2023/02/22 02:51:32;;;;;;;11.70;5.63;;;6.80;99.90;;;;;;4160603;28;21045;-75
2023/02/22 02:53:37;;;;;;;12.13;5.80;;;6.80;99.90;;;;;;4157503;28;20558;-75
2023/02/22 02:55:39;;;;;;;12.20;5.57;;;6.80;99.90;;;;;;4160159;28;20563;-76
2023/02/22 02:57:41;;;;;;;10.17;5.50;;;6.80;99.90;;;;;;4162275;28;20491;-75
2023/02/22 02:59:43;;;;;;;13.07;6.07;;;6.80;99.90;;;;;;4164161;28;20493;-76
2023/02/22 03:01:53;;;;;;;13.00;5.80;;;6.80;99.90;;;;;;4162182;28;20468;-76
2023/02/22 03:04:19;;;;;;;15.03;6.63;;;6.80;99.90;;;;;;4163981;28;20834;-75
2023/02/22 03:06:51;;;;;;;12.20;6.20;;;6.80;99.90;;;;;;4163326;28;20462;-75
2023/02/22 03:08:59;;;;;;;12.77;6.30;;;6.80;99.90;;;;;;4121815;28;20830;-75
2023/02/22 03:11:13;;;;;;;14.00;6.47;;;6.80;99.90;;;;;;4163394;28;20912;-75
2023/02/22 03:13:21;;;;;;;12.00;5.80;;;6.90;99.90;;;;;;4160805;28;20453;-75
2023/02/22 03:15:35;;;;;;;12.63;5.97;;;6.90;99.90;;;;;;4162993;28;20965;-75
2023/02/22 03:17:53;;;;;;;13.27;5.63;;;6.90;99.90;;;;;;4164128;28;20976;-75
2023/02/22 03:20:03;;;;;;;12.67;5.63;;;6.90;99.90;;;;;;4162799;28;20563;-75
2023/02/22 03:22:12;;;;;;;11.07;5.63;;;6.90;99.90;;;;;;4162929;28;20484;-76
2023/02/22 03:24:19;;;;;;;12.83;6.17;;;6.90;99.90;;;;;;4155551;28;20555;-76
2023/02/22 03:26:27;;;;;;;14.80;6.57;;;7.00;99.90;;;;;;4162163;28;20449;-75
2023/02/22 03:28:30;;;;;;;10.73;5.47;;;7.00;99.90;;;;;;4163553;28;20449;-75
2023/02/22 03:30:37;;;;;;;14.90;6.33;;;7.10;99.90;;;;;;4162934;28;20456;-75
2023/02/22 03:32:42;;;;;;;15.83;6.80;;;7.00;99.90;;;;;;4163280;28;20464;-75
2023/02/22 03:34:51;;;;;;;14.77;6.30;;;7.00;99.90;;;;;;4163342;28;20496;-75
2023/02/22 03:36:57;;;;;;;13.00;6.03;;;7.10;99.90;;;;;;4162884;28;20464;-76
2023/02/22 03:39:03;;;;;;;12.73;6.07;;;7.10;99.90;;;;;;4162422;28;20464;-76
2023/02/22 03:41:07;;;;;;;15.33;6.80;;;7.10;99.90;;;;;;4163411;28;20457;-75
2023/02/22 03:43:13;;;;;;;13.33;6.13;;;7.10;99.90;;;;;;4161440;28;20470;-75
2023/02/22 03:45:18;;;;;;;14.80;6.57;;;7.10;99.90;;;;;;4163843;28;20449;-75
2023/02/22 03:47:28;;;;;;;14.40;6.50;;;7.20;99.90;;;;;;4161972;28;20489;-76
2023/02/22 03:49:36;;;;;;;16.87;7.57;;;7.20;99.90;;;;;;4163522;28;20445;-75
2023/02/22 03:51:39;;;;;;;15.90;7.07;;;7.20;99.90;;;;;;4154064;28;20981;-76
2023/02/22 03:53:43;;;;;;;18.70;7.20;;;7.20;99.90;;;;;;4162868;28;20524;-75
2023/02/22 03:55:51;;;;;;;11.90;6.60;;;7.20;99.90;;;;;;4155128;28;20465;-75
2023/02/22 03:57:57;;;;;;;15.30;6.67;;;7.20;99.90;;;;;;4161681;28;20484;-75
2023/02/22 03:59:59;;;;;;;13.97;6.63;;;7.20;99.90;;;;;;4159601;28;20999;-76
2023/02/22 04:02:01;;;;;;;13.43;6.13;;;7.30;99.90;;;;;;4163068;28;20998;-75
2023/02/22 04:04:04;;;;;;;12.43;6.17;;;7.30;99.90;;;;;;4162821;28;20487;-75
2023/02/22 04:06:06;;;;;;;15.27;6.80;;;7.30;99.90;;;;;;4163618;28;20985;-75
2023/02/22 04:08:08;;;;;;;12.13;6.20;;;7.30;99.90;;;;;;4163346;28;20214;-75
2023/02/22 04:10:11;;;;;;;11.53;5.60;;;7.30;99.90;;;;;;4160553;28;20446;-75
2023/02/22 04:12:14;;;;;;;13.00;6.40;;;7.30;99.90;;;;;;4162190;28;21094;-75
2023/02/22 04:14:16;;;;;;;14.10;6.13;;;7.30;99.90;;;;;;4161516;28;20486;-76
2023/02/22 04:16:18;;;;;;;12.23;5.80;;;7.30;99.90;;;;;;4162504;28;20460;-76
2023/02/22 04:18:20;;;;;;;14.07;6.17;;;7.40;99.90;;;;;;4163326;28;20489;-75
2023/02/22 04:20:24;;;;;;;12.23;5.87;;;7.40;99.90;;;;;;4162700;28;20886;-75
2023/02/22 04:22:26;;;;;;;12.07;5.80;;;7.40;99.90;;;;;;4159051;28;20537;-75
2023/02/22 04:24:28;;;;;;;13.83;6.63;;;7.40;99.90;;;;;;4162190;28;20462;-75
2023/02/22 04:26:30;;;;;;;15.17;7.03;;;7.40;99.90;;;;;;4162358;28;21006;-76
2023/02/22 04:28:33;;;;;;;17.10;7.47;;;7.40;99.90;;;;;;4161300;28;20470;-75
2023/02/22 04:30:35;;;;;;;13.53;6.70;;;7.40;99.90;;;;;;4160625;28;20512;-75
2023/02/22 04:32:37;;;;;;;14.70;6.97;;;7.50;99.90;;;;;;4175422;28;20456;-75
2023/02/22 04:34:38;;;;;;;16.37;8.10;;;7.40;99.90;;;;;;4160893;28;20223;-75
2023/02/22 04:36:43;;;;;;;18.77;8.07;;;7.40;99.90;;;;;;4158159;28;20923;-75
2023/02/22 04:38:45;;;;;;;17.50;8.33;;;7.40;99.90;;;;;;4161952;28;20884;-75
2023/02/22 04:40:47;;;;;;;16.07;7.73;;;7.40;99.90;;;;;;4160150;28;20231;-75
2023/02/22 04:42:49;;;;;;;16.23;7.80;;;7.40;99.90;;;;;;4159898;28;20504;-75
2023/02/22 04:44:52;;;;;;;15.37;7.33;;;7.50;99.90;;;;;;4158916;28;20568;-75
2023/02/22 04:46:55;;;;;;;16.33;7.83;;;7.50;99.90;;;;;;4159484;28;20493;-75
2023/02/22 04:48:57;;;;;;;15.57;7.00;;;7.40;99.90;;;;;;4161812;28;21006;-75
2023/02/22 04:50:59;;;;;;;15.27;7.77;;;7.50;99.90;;;;;;4161264;28;20457;-75
2023/02/22 04:53:01;;;;;;;13.77;6.87;;;7.50;99.90;;;;;;4158952;28;20211;-75
2023/02/22 04:55:04;;;;;;;13.57;6.73;;;7.50;99.90;;;;;;4159852;28;20236;-75
2023/02/22 04:57:06;;;;;;;12.63;6.33;;;7.50;99.90;;;;;;4155482;28;20484;-77
2023/02/22 04:59:08;;;;;;;13.73;6.63;;;7.50;99.90;;;;;;4158993;28;20507;-77
2023/02/22 05:01:11;;;;;;;12.77;6.37;;;7.50;99.90;;;;;;4160981;28;20227;-75
2023/02/22 05:03:13;;;;;;;12.40;6.03;;;7.50;99.90;;;;;;4158922;28;20232;-74
2023/02/22 05:05:16;;;;;;;11.13;5.50;;;7.50;99.90;;;;;;4159177;28;20895;-75
2023/02/22 05:07:18;;;;;;;12.70;6.17;;;7.50;99.90;;;;;;4159638;28;20731;-75
2023/02/22 05:09:20;;;;;;;13.07;6.27;;;7.60;99.90;;;;;;4160956;28;20541;-74
2023/02/22 05:11:22;;;;;;;11.17;6.40;;;7.60;99.90;;;;;;4160158;28;20200;-73
2023/02/22 05:13:24;;;;;;;12.30;5.80;;;7.60;99.90;;;;;;4174919;28;20207;-74
2023/02/22 05:15:26;;;;;;;12.50;5.53;;;7.60;99.90;;;;;;4159463;28;20233;-73
2023/02/22 05:17:29;;;;;;;13.07;6.30;;;7.60;99.90;;;;;;4157903;28;20207;-73
2023/02/22 05:19:31;;;;;;;11.83;6.03;;;7.60;99.90;;;;;;4160591;28;20584;-73
2023/02/22 05:21:33;;;;;;;12.30;5.80;;;7.60;99.90;;;;;;4157864;28;20230;-74
2023/02/22 05:23:35;;;;;;;10.50;5.67;;;7.60;99.90;;;;;;4158065;28;20255;-74
2023/02/22 05:25:37;;;;;;;10.60;5.20;;;7.60;99.90;;;;;;4175015;28;20258;-74
2023/02/22 05:27:39;;;;;;;11.60;5.97;;;7.60;99.90;;;;;;4176023;28;20214;-74
2023/02/22 05:29:41;;;;;;;13.23;6.10;;;7.60;99.90;;;;;;4160912;28;20619;-74
2023/02/22 05:31:43;;;;;;;14.03;7.00;;;7.60;99.90;;;;;;4160395;28;20298;-74
2023/02/22 05:33:47;;;;;;;9.77;5.40;;;7.70;99.90;;;;;;4160849;28;20258;-75
2023/02/22 05:35:51;;;;;;;12.37;5.70;;;7.70;99.90;;;;;;4160430;28;20219;-74
2023/02/22 05:37:53;;;;;;;13.73;6.07;;;7.70;99.90;;;;;;4156979;28;20695;-74
2023/02/22 05:39:55;;;;;;;11.90;6.13;;;7.70;99.90;;;;;;4153782;28;20210;-75
2023/02/22 05:41:57;;;;;;;11.63;6.07;;;7.70;99.90;;;;;;4148633;28;20242;-74
2023/02/22 05:44:01;;;;;;;13.33;6.50;;;7.70;99.90;;;;;;4153276;28;20225;-74
2023/02/22 05:46:03;;;;;;;14.60;6.33;;;7.70;99.90;;;;;;4147233;28;20238;-74
2023/02/22 05:48:05;;;;;;;14.13;6.57;;;7.70;99.90;;;;;;4155560;28;21058;-74
2023/02/22 05:50:09;;;;;;;12.97;6.37;;;7.70;99.90;;;;;;4161014;28;20231;-74
2023/02/22 05:52:11;;;;;;;14.13;6.40;;;7.70;99.90;;;;;;4158890;28;20548;-74
2023/02/22 05:54:13;;;;;;;15.37;7.03;;;7.70;99.90;;;;;;4157500;28;20663;-74
2023/02/22 05:56:21;;;;;;;15.73;6.90;;;7.80;99.90;;;;;;4159379;28;20261;-74
2023/02/22 05:58:22;;;;;;;17.33;7.10;;;7.80;99.90;;;;;;4158816;28;20562;-74
2023/02/22 06:00:28;;;;;;;13.10;6.47;;;7.80;99.90;;;;;;4160179;28;20234;-74
2023/02/22 06:02:30;;;;;;;15.93;7.53;;;7.80;99.90;;;;;;4158593;28;20246;-74
2023/02/22 06:04:32;;;;;;;15.63;7.17;;;7.80;99.90;;;;;;4158148;28;20229;-74
2023/02/22 06:06:35;;;;;;;18.00;8.50;;;7.80;99.90;;;;;;4160033;28;20211;-74
2023/02/22 06:08:37;;;;;;;15.97;7.00;;;7.80;99.90;;;;;;4157343;28;20709;-74
2023/02/22 06:10:39;;;;;;;16.90;8.07;;;7.80;99.90;;;;;;4159759;28;20464;-76
2023/02/22 06:12:41;;;;;;;14.30;6.90;;;7.80;99.90;;;;;;4160928;28;20245;-73
2023/02/22 06:14:44;;;;;;;17.90;8.47;;;7.80;99.90;;;;;;4168828;28;20485;-75
2023/02/22 06:16:56;;;;;;;16.63;7.53;;;7.80;99.90;;;;;;4159142;28;20211;-74
2023/02/22 06:18:58;;;;;;;18.70;8.13;;;7.80;99.90;;;;;;4153556;28;20229;-74
2023/02/22 06:21:00;;;;;;;18.37;8.27;;;7.90;99.90;;;;;;4157255;28;20662;-74
2023/02/22 06:23:03;;;;;;;17.07;7.80;;;7.80;99.90;;;;;;4157499;28;20207;-75
2023/02/22 06:25:07;;;;;;;22.03;9.30;;;7.90;99.90;;;;;;4157836;28;20677;-75
2023/02/22 06:27:09;;;;;;;19.67;7.80;;;7.90;99.90;;;;;;4158073;28;20191;-75
2023/02/22 06:29:10;;;;;;;17.93;7.70;;;7.90;99.90;;;;;;4158337;28;20237;-74
2023/02/22 06:31:12;;;;;;;15.30;7.20;;;7.90;99.90;;;;;;4156541;28;20203;-74
2023/02/22 06:33:15;;;;;;;18.50;8.17;;;7.90;99.90;;;;;;4160125;28;20274;-74
2023/02/22 06:35:17;;;;;;;15.70;8.07;;;7.90;99.90;;;;;;4161428;28;20702;-75
2023/02/22 06:37:19;;;;;;;17.80;7.90;;;7.90;99.90;;;;;;4154079;28;20290;-74
2023/02/22 06:39:24;;;;;;;19.90;8.83;;;7.90;99.90;;;;;;4162468;28;20290;-75
2023/02/22 06:41:26;;;;;;;18.70;9.37;;;8.00;99.90;;;;;;4163543;28;20665;-75
2023/02/22 06:43:28;;;;;;;21.67;8.33;;;8.00;99.90;;;;;;4162765;28;20454;-75
2023/02/22 06:45:30;;;;;;;15.23;7.67;;;8.00;99.90;;;;;;4162204;28;20646;-75
2023/02/22 06:47:32;;;;;;;17.03;8.03;;;8.00;99.90;;;;;;4162460;28;20262;-75
2023/02/22 06:49:34;;;;;;;17.63;8.77;;;8.00;99.90;;;;;;4162292;28;20290;-75
2023/02/22 06:51:37;;;;;;;17.43;8.53;;;8.00;99.90;;;;;;4161875;28;20624;-75
2023/02/22 06:53:42;;;;;;;15.80;7.30;;;8.00;99.90;;;;;;4161857;28;20235;-75
2023/02/22 06:55:45;;;;;;;17.63;7.57;;;8.10;99.90;;;;;;4162417;28;20234;-75
2023/02/22 06:57:48;;;;;;;14.27;8.03;;;8.10;99.90;;;;;;4163077;28;20277;-75
2023/02/22 06:59:50;;;;;;;18.57;8.30;;;8.10;99.90;;;;;;4161907;28;20286;-75
2023/02/22 07:01:52;;;;;;;15.63;7.73;;;8.10;99.90;;;;;;4160440;28;20768;-75
2023/02/22 07:03:54;;;;;;;20.80;9.40;;;8.10;99.90;;;;;;4162494;28;20223;-75
2023/02/22 07:05:56;;;;;;;19.47;9.03;;;8.10;99.90;;;;;;4162025;28;20229;-75
2023/02/22 07:08:03;;;;;;;17.20;8.37;;;8.20;99.90;;;;;;4163176;28;20203;-74
2023/02/22 07:10:07;;;;;;;15.80;8.50;;;8.10;99.90;;;;;;4161788;28;20206;-75
2023/02/22 07:12:13;;;;;;;18.97;8.53;;;8.20;99.90;;;;;;4160324;28;20225;-75
2023/02/22 07:14:17;;;;;;;19.53;8.70;;;8.20;99.90;;;;;;4161394;28;20219;-75
2023/02/22 07:16:19;;;;;;;16.73;8.00;;;8.20;99.90;;;;;;4159881;28;20310;-75
2023/02/22 07:18:21;;;;;;;19.27;8.20;;;8.20;99.90;;;;;;4176606;28;20207;-75
2023/02/22 07:20:24;;;;;;;15.23;7.70;;;8.30;99.90;;;;;;4176663;28;20220;-75
2023/02/22 07:22:26;;;;;;;16.97;8.83;;;8.30;99.90;;;;;;4160605;28;20239;-74
2023/02/22 07:24:28;;;;;;;17.00;7.97;;;8.30;99.90;;;;;;4162010;28;20708;-75
2023/02/22 07:26:30;;;;;;;16.77;8.23;;;8.40;99.90;;;;;;4160393;28;20222;-75
2023/02/22 07:28:33;;;;;;;16.73;7.93;;;8.40;99.90;;;;;;4161332;28;20291;-75
2023/02/22 07:30:35;;;;;;;15.10;7.37;;;8.40;99.90;;;;;;4160587;28;20231;-75
2023/02/22 07:32:37;;;;;;;16.70;7.70;;;8.40;99.90;;;;;;4176573;28;20210;-75
2023/02/22 07:34:42;;;;;;;15.80;7.93;;;8.40;99.90;;;;;;4161058;28;20235;-74
2023/02/22 07:36:44;;;;;;;16.23;8.27;;;8.50;99.90;;;;;;4161948;28;20239;-75
2023/02/22 07:38:46;;;;;;;20.43;8.90;;;8.50;99.90;;;;;;4161924;28;20864;-75
2023/02/22 07:40:48;;;;;;;19.83;8.70;;;8.50;99.90;;;;;;4161927;28;20330;-75
2023/02/22 07:42:54;;;;;;;14.70;7.47;;;8.50;99.90;;;;;;4161783;28;20202;-75
2023/02/22 07:44:57;;;;;;;17.77;8.63;;;8.50;99.90;;;;;;4160324;28;20226;-75
2023/02/22 07:47:01;;;;;;;18.27;7.77;;;8.60;99.90;;;;;;4161558;28;20258;-75
2023/02/22 07:49:03;;;;;;;17.57;8.43;;;8.60;99.90;;;;;;4161104;28;20249;-74
2023/02/22 07:51:06;;;;;;;15.40;7.20;;;8.60;99.90;;;;;;4153030;28;20211;-74
2023/02/22 07:53:11;;;;;;;18.13;7.67;;;8.60;99.90;;;;;;4160026;28;20311;-74
2023/02/22 07:55:15;;;;;;;14.80;7.90;;;8.70;99.90;;;;;;4160939;28;20294;-75
2023/02/22 07:57:17;;;;;;;16.60;7.57;;;8.70;99.90;;;;;;4161689;28;20255;-75
2023/02/22 07:59:20;;;;;;;15.50;7.80;;;8.70;99.90;;;;;;4161831;28;20206;-75
2023/02/22 08:01:24;;;;;;;17.27;7.47;;;8.80;99.90;;;;;;4160532;28;20215;-75
2023/02/22 08:03:26;;;;;;;15.57;7.33;;;8.80;99.90;;;;;;4159628;28;20626;-74
2023/02/22 08:05:29;;;;;;;17.97;7.60;;;8.80;99.90;;;;;;4176170;28;20231;-75
2023/02/22 08:07:31;;;;;;;14.63;8.13;;;8.80;99.90;;;;;;4160967;28;20586;-75
2023/02/22 08:09:33;;;;;;;17.63;8.87;;;8.80;99.90;;;;;;4160218;28;20721;-75
2023/02/22 08:11:35;;;;;;;19.77;8.80;;;8.90;99.90;;;;;;4160993;28;20638;-75
2023/02/22 08:13:39;;;;;;;16.20;8.23;;;8.90;99.90;;;;;;4160720;28;20256;-75
2023/02/22 08:15:43;;;;;;;18.43;8.47;;;8.90;99.90;;;;;;4161365;28;20322;-75
2023/02/22 08:17:46;;;;;;;19.63;9.20;;;8.90;99.90;;;;;;4160551;28;20203;-75
2023/02/22 08:19:48;;;;;;;19.77;8.47;;;8.90;99.90;;;;;;4159945;28;20204;-75
2023/02/22 08:21:50;;;;;;;18.53;8.13;;;9.00;99.90;;;;;;4159495;28;20231;-75
2023/02/22 08:23:53;;;;;;;19.93;9.60;;;9.00;99.90;;;;;;4160784;28;20227;-73
2023/02/22 08:25:55;;;;;;;15.93;7.70;;;9.00;99.90;;;;;;4159216;28;20285;-75
2023/02/22 08:28:00;;;;;;;14.80;7.97;;;9.10;99.90;;;;;;4156008;28;20302;-75
2023/02/22 08:30:02;;;;;;;18.97;9.00;;;9.10;99.90;;;;;;4158726;28;20268;-75
2023/02/22 08:32:04;;;;;;;17.23;8.37;;;9.10;99.90;;;;;;4161550;28;20257;-75
2023/02/22 08:34:07;;;;;;;16.60;8.13;;;9.20;99.90;;;;;;4153132;28;20394;-75
2023/02/22 08:36:09;;;;;;;19.40;8.87;;;9.20;99.90;;;;;;4160720;28;20257;-74
2023/02/22 08:38:18;;;;;;;17.70;9.50;;;9.20;99.90;;;;;;4160374;28;20202;-74
2023/02/22 08:40:21;;;;;;;18.30;8.60;;;9.30;99.90;;;;;;4158511;28;20207;-75
2023/02/22 08:42:23;;;;;;;19.77;8.57;;;9.30;99.90;;;;;;4158261;28;20205;-74
2023/02/22 08:44:25;;;;;;;16.37;8.43;;;9.30;99.90;;;;;;4156626;28;20312;-75
2023/02/22 08:46:27;;;;;;;16.90;8.37;;;9.40;99.90;;;;;;4158805;28;20244;-75
2023/02/22 08:48:29;;;;;;;19.07;8.43;;;9.40;99.90;;;;;;4158520;28;20676;-75
2023/02/22 08:50:34;;;;;;;18.33;8.77;;;9.50;99.90;;;;;;4160164;28;20228;-75
2023/02/22 08:52:36;;;;;;;21.07;10.17;;;9.40;99.90;;;;;;4160496;28;20214;-75
2023/02/22 08:54:38;;;;;;;21.27;10.07;;;9.50;99.90;;;;;;4160262;28;20246;-74
2023/02/22 08:56:40;;;;;;;19.40;9.20;;;9.60;99.90;;;;;;4158637;28;20253;-74
2023/02/22 08:58:42;;;;;;;18.47;9.13;;;9.60;99.90;;;;;;4160899;28;20219;-74
2023/02/22 09:00:44;;;;;;;21.83;9.67;;;9.70;99.90;;;;;;4175589;28;20303;-74
2023/02/22 09:02:46;;;;;;;19.10;9.73;;;9.70;99.90;;;;;;4161220;28;20204;-75
2023/02/22 09:04:49;;;;;;;22.07;10.80;;;9.70;99.90;;;;;;4160159;28;20227;-75
2023/02/22 09:06:52;;;;;;;20.63;9.23;;;9.80;99.90;;;;;;4160708;28;20690;-75
2023/02/22 09:08:54;;;;;;;23.00;11.07;;;9.80;99.90;;;;;;4160789;28;20210;-75
2023/02/22 09:10:56;;;;;;;23.60;10.87;;;9.90;99.90;;;;;;4175685;28;20984;-75
2023/02/22 09:12:59;;;;;;;23.97;11.27;;;9.90;99.90;;;;;;4174999;28;20213;-74
2023/02/22 09:15:02;;;;;;;23.30;11.23;;;9.90;99.90;;;;;;4160059;28;20301;-75
2023/02/22 09:17:04;;;;;;;21.27;11.27;;;9.90;99.90;;;;;;4160504;28;21053;-75
2023/02/22 09:19:06;;;;;;;22.97;10.83;;;9.90;99.90;;;;;;4158876;28;20221;-77
2023/02/22 09:21:08;;;;;;;19.60;9.50;;;10.00;99.90;;;;;;4161943;28;20587;-74
2023/02/22 09:23:13;;;;;;;21.27;10.63;;;10.00;99.90;;;;;;4160095;28;20274;-75
2023/02/22 09:25:16;;;;;;;19.30;9.90;;;10.10;99.90;;;;;;4160995;28;20293;-74
2023/02/22 09:27:19;;;;;;;22.67;10.53;;;10.10;99.90;;;;;;4159264;28;20197;-74
2023/02/22 09:29:22;;;;;;;21.50;10.40;;;10.10;99.90;;;;;;4159587;28;20575;-75
2023/02/22 09:31:26;;;;;;;18.67;9.77;;;10.20;99.90;;;;;;4160483;28;20629;-75
2023/02/22 09:33:28;;;;;;;20.53;10.23;;;10.20;99.90;;;;;;4171802;28;20216;-74
2023/02/22 09:35:30;;;;;;;21.63;10.57;;;10.30;99.90;;;;;;4158489;28;20224;-74
2023/02/22 09:37:32;;;;;;;20.07;9.97;;;10.30;99.90;;;;;;4159488;28;20225;-75
2023/02/22 09:39:38;;;;;;;17.03;8.93;;;10.30;99.90;;;;;;4158370;28;20234;-74
2023/02/22 09:41:48;;;;;;;17.80;9.17;;;10.40;99.90;;;;;;4156354;28;20296;-74
2023/02/22 09:44:01;;;;;;;19.10;10.03;;;10.40;99.90;;;;;;4157304;28;20230;-74
2023/02/22 09:46:17;;;;;;;19.23;9.83;;;10.40;99.90;;;;;;4157555;28;20269;-74
2023/02/22 09:48:20;;;;;;;21.70;9.90;;;10.50;99.90;;;;;;4158363;28;20210;-75
2023/02/22 09:50:24;;;;;;;19.30;9.70;;;10.50;99.90;;;;;;4158713;28;21117;-74
2023/02/22 09:52:30;;;;;;;22.10;10.50;;;10.60;99.90;;;;;;4159732;28;20218;-74
2023/02/22 09:54:39;;;;;;;19.47;9.40;;;10.60;99.90;;;;;;4159538;28;20241;-75
2023/02/22 09:56:42;;;;;;;23.63;10.40;;;10.60;99.90;;;;;;4151521;28;20252;-74
2023/02/22 09:58:47;;;;;;;16.93;9.30;;;10.70;99.90;;;;;;4159651;28;20218;-74
2023/02/22 10:00:54;;;;;;;19.40;9.30;;;10.80;99.90;;;;;;4173548;28;20228;-74
2023/02/22 10:03:08;;;;;;;16.07;8.30;;;10.80;99.90;;;;;;4157857;28;20194;-74
2023/02/22 10:05:18;;;;;;;22.40;10.03;;;10.90;99.90;;;;;;4157716;28;20226;-75
2023/02/22 10:07:25;;;;;;;18.50;9.53;;;11.00;99.90;;;;;;4158005;28;20237;-74
2023/02/22 10:09:29;;;;;;;20.10;9.80;;;11.00;99.90;;;;;;4158264;28;20206;-75
2023/02/22 10:11:48;;;;;;;17.73;9.53;;;11.00;99.90;;;;;;4158845;28;20707;-74
2023/02/22 10:14:01;;;;;;;19.33;9.77;;;11.10;99.90;;;;;;4158536;28;20234;-74
2023/02/22 10:16:10;;;;;;;17.33;8.70;;;11.10;99.90;;;;;;4158523;28;20203;-74
2023/02/22 10:19:07;;;;;;;17.90;7.90;;;11.20;99.90;;;;;;4160628;28;20579;-74
2023/02/22 10:21:19;;;;;;;19.60;8.93;;;11.20;99.90;;;;;;4148961;28;20535;-74
2023/02/22 10:23:29;;;;;;;20.50;9.20;;;11.30;99.90;;;;;;4158081;28;20229;-75
2023/02/22 10:25:36;;;;;;;17.67;8.73;;;11.40;99.90;;;;;;4159064;28;20214;-74
2023/02/22 10:27:42;;;;;;;18.27;8.87;;;11.40;99.90;;;;;;4160331;28;20622;-74
2023/02/22 10:29:49;;;;;;;21.17;9.97;;;11.40;99.90;;;;;;4159883;28;20215;-74
2023/02/22 10:31:56;;;;;;;19.13;9.43;;;11.50;99.90;;;;;;4160083;28;20219;-75
2023/02/22 10:34:01;;;;;;;18.10;9.10;;;11.60;99.90;;;;;;4161692;28;20841;-75
2023/02/22 10:36:05;;;;;;;17.13;9.03;;;11.50;99.90;;;;;;4159964;28;20235;-74
2023/02/22 10:38:16;;;;;;;17.47;9.27;;;11.70;99.90;;;;;;4160657;28;20623;-75
2023/02/22 10:40:21;;;;;;;16.77;8.30;;;11.80;99.90;;;;;;4161197;28;20223;-74
2023/02/22 10:42:26;;;;;;;17.33;9.10;;;11.80;99.90;;;;;;4158546;28;20210;-74
2023/02/22 10:44:29;;;;;;;16.13;8.67;;;11.90;99.90;;;;;;4159195;28;20289;-74
2023/02/22 10:46:34;;;;;;;17.10;8.90;;;12.00;99.90;;;;;;4159325;28;20252;-74
2023/02/22 10:48:38;;;;;;;17.33;8.87;;;12.00;99.90;;;;;;4160402;28;20202;-74